Time;durP1;ratioP1;P1;durP2;ratioP2;P2;SDS_P1;SDS_P2;PMS_P1;PMS_P2;Temp;Humidity;BMP_temperature;BMP_pressure;BME280_temperature;BME280_humidity;BME280_pressure;Samples;Min_cycle;Max_cycle;Signal;HPM_P1;HPM_P2
2021/06/18 00:00:30;;;;;;;0.80;0.67;;;23.60;99.90;;;23.81;100.00;-21325.28;5053774;28;20485;-73
2021/06/18 00:02:58;;;;;;;0.80;0.60;;;23.50;99.90;;;23.96;100.00;-21329.22;5054352;28;20470;-73
2021/06/18 00:05:26;;;;;;;0.80;0.63;;;23.50;99.90;;;23.93;100.00;-21328.53;5052286;28;20976;-73
2021/06/18 00:07:54;;;;;;;0.80;0.60;;;23.50;99.90;;;23.96;100.00;-21329.34;5052769;28;20448;-73
2021/06/18 00:10:25;;;;;;;0.80;0.70;;;23.50;99.90;;;23.94;100.00;-21328.81;5052356;28;20553;-74
2021/06/18 00:12:57;;;;;;;0.70;0.60;;;23.60;99.90;;;23.84;100.00;-21326.09;5053723;28;20482;-73
2021/06/18 00:15:26;;;;;;;0.97;0.87;;;23.50;99.90;;;23.86;100.00;-21326.63;5056833;28;20436;-73
2021/06/18 00:17:54;;;;;;;0.80;0.80;;;23.50;99.90;;;23.92;100.00;-21328.28;5068531;28;20508;-73
2021/06/18 00:20:22;;;;;;;1.07;0.97;;;23.50;99.90;;;23.97;100.00;-21329.63;5058793;28;20809;-73
2021/06/18 00:22:52;;;;;;;0.80;0.70;;;23.50;99.90;;;23.89;100.00;-21327.44;5063726;28;20437;-73
2021/06/18 00:25:20;;;;;;;0.80;0.60;;;23.50;99.90;;;23.76;100.00;-21323.91;5063398;28;20432;-74
2021/06/18 00:27:47;;;;;;;0.70;0.60;;;23.50;99.90;;;23.75;100.00;-21323.78;5071099;28;20477;-73
2021/06/18 00:30:17;;;;;;;0.70;0.60;;;23.40;99.90;;;23.71;100.00;-21322.56;5072116;28;20465;-73
2021/06/18 00:32:48;;;;;;;0.70;0.60;;;23.40;99.90;;;23.62;100.00;-21320.38;5071859;28;20437;-74
2021/06/18 00:35:17;;;;;;;0.80;0.80;;;23.30;99.90;;;23.54;100.00;-21318.22;5062798;28;20460;-73
2021/06/18 00:37:45;;;;;;;0.80;0.70;;;23.30;99.90;;;23.50;100.00;-21317.00;5051187;28;20504;-73
2021/06/18 00:40:13;;;;;;;0.80;0.70;;;23.20;99.90;;;23.41;100.00;-21314.66;5033718;28;20917;-73
2021/06/18 00:42:45;;;;;;;0.80;0.60;;;23.20;99.90;;;23.32;100.00;-21312.22;5051222;28;20470;-74
2021/06/18 00:45:13;;;;;;;0.80;0.60;;;23.00;99.90;;;23.32;100.00;-21312.22;5060428;28;20435;-73
2021/06/18 00:47:49;;;;;;;0.80;0.70;;;23.00;99.90;;;23.30;100.00;-21311.69;5071614;28;20443;-73
2021/06/18 00:50:38;;;;;;;0.80;0.70;;;23.00;99.90;;;23.34;100.00;-21312.78;5057831;28;20463;-73
2021/06/18 00:53:07;;;;;;;0.77;0.60;;;22.90;99.90;;;23.28;100.00;-21311.13;5054096;28;20468;-73
2021/06/18 00:55:36;;;;;;;0.80;0.70;;;22.90;99.90;;;23.20;100.00;-21308.97;5064305;28;20788;-74
2021/06/18 00:58:04;;;;;;;0.80;0.70;;;22.90;99.90;;;23.19;100.00;-21308.81;5067695;28;20422;-73
2021/06/18 01:00:31;;;;;;;0.80;0.70;;;22.90;99.90;;;23.23;100.00;-21309.78;5071160;28;20439;-74
2021/06/18 01:03:00;;;;;;;0.80;0.60;;;22.80;99.90;;;23.25;100.00;-21310.47;5072725;28;20426;-73
2021/06/18 01:05:28;;;;;;;0.73;0.67;;;22.90;99.90;;;23.25;100.00;-21310.31;5058457;28;20890;-74
2021/06/18 01:08:09;;;;;;;0.80;0.60;;;22.90;99.90;;;23.25;100.00;-21310.31;5056688;28;20501;-73
2021/06/18 01:10:52;;;;;;;1.00;0.83;;;22.90;99.90;;;23.13;100.00;-21307.19;5076093;28;20860;-73
2021/06/18 01:13:35;;;;;;;0.80;0.70;;;22.80;99.90;;;23.23;100.00;-21309.78;5070112;28;20436;-73
2021/06/18 01:16:09;;;;;;;0.80;0.70;;;22.80;99.90;;;23.26;100.00;-21303.56;5063167;28;20434;-73
2021/06/18 01:18:45;;;;;;;0.73;0.60;;;22.90;99.90;;;23.14;100.00;-20983.75;5075549;28;20533;-74
2021/06/18 01:21:22;;;;;;;0.80;0.60;;;22.80;99.90;;;23.05;100.00;-20534.25;5067139;28;20436;-74
2021/06/18 01:24:00;;;;;;;1.23;1.10;;;22.80;99.90;;;23.08;100.00;-20489.03;5067293;28;20450;-74
2021/06/18 01:27:03;;;;;;;0.80;0.60;;;22.70;99.90;;;23.08;100.00;-20051.94;5038027;28;20452;-74
2021/06/18 01:29:40;;;;;;;0.80;0.77;;;22.70;99.90;;;22.97;100.00;-19466.69;5057238;28;20432;-73
2021/06/18 01:32:18;;;;;;;0.70;0.60;;;22.70;99.90;;;22.85;100.00;-18658.81;5055827;28;20445;-73
2021/06/18 01:34:50;;;;;;;0.70;0.60;;;22.60;99.90;;;22.74;100.00;-17853.84;5037861;28;20432;-74
2021/06/18 01:37:22;;;;;;;0.70;0.60;;;22.50;99.90;;;22.65;100.00;-16883.28;5055370;28;20415;-74
2021/06/18 01:39:53;;;;;;;0.70;0.60;;;22.40;99.90;;;22.66;100.00;-15559.03;5055103;28;20408;-74
2021/06/18 01:42:23;;;;;;;0.80;0.70;;;22.30;99.90;;;22.61;100.00;-14594.00;5058609;28;20444;-74
2021/06/18 01:44:53;;;;;;;0.80;0.70;;;22.30;99.90;;;22.62;100.00;-13542.66;5072111;28;20443;-73
2021/06/18 01:47:25;;;;;;;0.80;0.60;;;22.20;99.90;;;22.62;100.00;-12890.03;5075530;28;20879;-74
2021/06/18 01:49:55;;;;;;;0.80;0.80;;;22.20;99.90;;;22.63;100.00;-11658.88;5074099;28;20435;-73
2021/06/18 01:52:26;;;;;;;0.80;0.67;;;22.20;99.90;;;22.60;100.00;-11868.50;5074156;28;20497;-73
2021/06/18 01:54:59;;;;;;;0.70;0.60;;;22.20;99.90;;;22.54;100.00;-11104.88;5076900;28;20446;-73
2021/06/18 01:57:29;;;;;;;0.80;0.63;;;22.10;99.90;;;22.43;100.00;-9792.75;5074071;28;20430;-74
2021/06/18 02:00:00;;;;;;;0.80;0.67;;;22.10;99.90;;;22.34;100.00;-7824.78;5071946;28;20518;-73
2021/06/18 02:02:38;;;;;;;0.80;0.70;;;22.00;99.90;;;22.30;100.00;-5984.53;5072538;28;20435;-74
2021/06/18 02:05:08;;;;;;;0.80;0.60;;;21.90;99.90;;;22.29;100.00;-3907.47;5058083;28;20535;-72
2021/06/18 02:07:38;;;;;;;1.00;0.90;;;21.90;99.90;;;22.34;100.00;-2573.25;5070279;28;20432;-73
2021/06/18 02:10:09;;;;;;;0.80;0.60;;;21.90;99.90;;;22.30;100.00;-840.75;5054607;28;20451;-73
2021/06/18 02:12:38;;;;;;;0.80;0.60;;;21.90;99.90;;;22.25;100.00;779.28;5055420;28;20532;-73
2021/06/18 02:15:10;;;;;;;0.80;0.70;;;21.80;99.90;;;22.16;100.00;3090.81;5054157;28;20427;-74
2021/06/18 02:17:40;;;;;;;0.80;0.80;;;21.80;99.90;;;22.17;100.00;5600.22;5044584;28;20453;-73
2021/06/18 02:20:10;;;;;;;0.80;0.70;;;21.70;99.90;;;22.10;100.00;8769.03;5069334;28;20432;-73
2021/06/18 02:22:42;;;;;;;0.80;0.67;;;21.70;99.90;;;22.05;100.00;12396.72;5059272;28;20967;-73
2021/06/18 02:25:13;;;;;;;0.80;0.63;;;21.60;99.90;;;22.00;100.00;16275.28;5068394;28;20431;-73
2021/06/18 02:27:43;;;;;;;0.80;0.70;;;21.60;99.90;;;21.96;100.00;19941.56;5075077;28;20446;-73
2021/06/18 02:30:16;;;;;;;0.80;0.60;;;21.60;99.90;;;21.94;100.00;23276.13;5073228;28;20939;-73
2021/06/18 02:32:48;;;;;;;1.30;1.20;;;21.50;99.90;;;21.93;100.00;26231.41;5073134;28;20460;-74
2021/06/18 02:35:16;;;;;;;0.80;0.70;;;21.50;99.90;;;21.94;100.00;29257.66;5073381;28;20444;-73
2021/06/18 02:37:46;;;;;;;0.80;0.70;;;21.50;99.90;;;21.90;100.00;32211.16;5066861;28;21069;-74
2021/06/18 02:40:14;;;;;;;0.80;0.70;;;21.50;99.90;;;21.89;100.00;35425.66;5052911;28;20443;-74
2021/06/18 02:42:42;;;;;;;0.80;0.70;;;21.40;99.90;;;21.84;100.00;38832.47;5072301;28;20466;-73
2021/06/18 02:45:13;;;;;;;0.80;0.70;;;21.40;99.90;;;21.80;100.00;42151.97;5074409;28;20411;-73
2021/06/18 02:47:50;;;;;;;0.80;0.60;;;21.40;99.90;;;21.77;100.00;44978.31;5074363;28;20434;-73
2021/06/18 02:50:28;;;;;;;0.77;0.63;;;21.30;99.90;;;21.72;100.00;47305.75;5072078;28;20408;-73
2021/06/18 02:53:06;;;;;;;0.80;0.70;;;21.30;99.90;;;21.63;100.00;50297.19;5062743;28;20467;-72
2021/06/18 02:55:43;;;;;;;0.80;0.63;;;21.20;99.90;;;21.60;100.00;51961.69;5070261;28;20475;-72
2021/06/18 02:58:17;;;;;;;1.20;1.10;;;21.20;99.90;;;21.54;100.00;53290.34;5053543;28;20417;-73
2021/06/18 03:00:47;;;;;;;0.90;0.90;;;21.10;99.90;;;21.54;100.00;54291.84;5058159;28;20434;-74
2021/06/18 03:03:21;;;;;;;0.80;0.70;;;21.10;99.90;;;21.55;100.00;54626.56;5072772;28;20459;-74
2021/06/18 03:05:51;;;;;;;0.80;0.67;;;21.10;99.90;;;21.55;100.00;54959.84;5072660;28;20461;-74
2021/06/18 03:08:24;;;;;;;0.80;0.70;;;21.00;99.90;;;21.53;100.00;55292.19;5063737;28;20475;-72
2021/06/18 03:10:57;;;;;;;0.80;0.60;;;21.00;99.90;;;21.53;100.00;54958.38;5061979;28;20484;-74
2021/06/18 03:13:30;;;;;;;0.70;0.63;;;21.00;99.90;;;21.51;100.00;54622.69;5072675;28;20959;-74
2021/06/18 03:16:01;;;;;;;0.80;0.70;;;21.00;99.90;;;21.50;100.00;54621.22;5073522;28;20501;-72
2021/06/18 03:18:32;;;;;;;0.73;0.60;;;21.00;99.90;;;21.49;100.00;53953.38;5072814;28;20427;-74
2021/06/18 03:21:01;;;;;;;0.77;0.70;;;21.00;99.90;;;21.50;100.00;53286.59;5069053;28;20463;-73
2021/06/18 03:23:31;;;;;;;0.70;0.60;;;21.00;99.90;;;21.57;100.00;52292.44;5068645;28;20451;-74
2021/06/18 03:26:02;;;;;;;0.80;0.70;;;21.00;99.90;;;21.55;100.00;51957.53;5071343;28;20428;-73
2021/06/18 03:28:32;;;;;;;0.80;0.80;;;21.00;99.90;;;21.56;100.00;50958.09;5073648;28;20759;-74
2021/06/18 03:31:07;;;;;;;0.70;0.60;;;21.10;99.90;;;21.56;100.00;50291.38;5054096;28;20563;-73
2021/06/18 03:33:37;;;;;;;0.70;0.60;;;21.10;99.90;;;21.50;100.00;49619.00;5052688;28;20416;-73
2021/06/18 03:36:07;;;;;;;0.70;0.60;;;21.00;99.90;;;21.49;100.00;48952.16;5052835;28;20496;-73
2021/06/18 03:38:35;;;;;;;0.80;0.60;;;21.00;99.90;;;21.62;100.00;47963.53;5071632;28;20467;-73
2021/06/18 03:41:03;;;;;;;0.70;0.60;;;21.00;99.90;;;21.72;100.00;46639.56;5062367;28;20448;-73
2021/06/18 03:43:30;;;;;;;0.80;0.70;;;21.10;99.90;;;21.79;100.00;45978.88;5052111;28;20443;-73
2021/06/18 03:46:04;;;;;;;1.33;1.00;;;21.20;99.90;;;21.79;100.00;45312.88;5053636;28;20415;-73
2021/06/18 03:48:37;;;;;;;0.80;0.60;;;21.20;99.90;;;21.82;100.00;44649.41;5053088;28;20466;-73
2021/06/18 03:51:06;;;;;;;0.70;0.60;;;21.30;99.90;;;21.80;100.00;43982.06;5051991;28;20464;-73
2021/06/18 03:53:34;;;;;;;0.70;0.60;;;21.30;99.90;;;21.78;100.00;42982.16;5051856;28;20460;-73
2021/06/18 03:56:04;;;;;;;0.80;0.70;;;21.30;99.90;;;21.76;100.00;42980.59;5064271;28;20485;-73
2021/06/18 03:58:33;;;;;;;0.80;0.70;;;21.20;99.90;;;21.77;100.00;42316.00;5059662;28;20460;-73
2021/06/18 04:01:04;;;;;;;0.73;0.67;;;21.20;99.90;;;21.76;100.00;42242.47;5053757;28;20466;-73
2021/06/18 04:03:34;;;;;;;0.80;0.73;;;21.30;99.90;;;21.78;100.00;41298.53;5053346;28;20409;-73
2021/06/18 04:06:05;;;;;;;0.97;0.87;;;21.30;99.90;;;21.91;100.00;40460.78;5063481;28;20455;-73
2021/06/18 04:08:35;;;;;;;0.80;0.70;;;21.30;99.90;;;21.99;100.00;39858.69;5052997;28;20434;-73
2021/06/18 04:11:05;;;;;;;0.80;0.60;;;21.40;99.90;;;22.14;100.00;38993.94;5051938;28;20448;-74
2021/06/18 04:13:33;;;;;;;0.97;0.97;;;21.50;99.90;;;22.29;100.00;37343.84;5061527;28;20958;-73
2021/06/18 04:16:02;;;;;;;0.70;0.70;;;21.60;99.90;;;22.38;100.00;37092.81;5068336;28;20451;-72
2021/06/18 04:18:33;;;;;;;1.47;1.37;;;21.70;99.90;;;22.43;100.00;36348.19;5067464;28;20464;-73
2021/06/18 04:21:05;;;;;;;0.70;0.60;;;21.80;99.90;;;22.52;100.00;35117.72;5054227;28;20833;-73
2021/06/18 04:23:33;;;;;;;0.80;0.80;;;21.90;99.90;;;22.65;100.00;33160.78;5062464;28;20986;-72
2021/06/18 04:26:01;;;;;;;0.70;0.60;;;22.00;99.90;;;22.73;100.00;29406.22;5066661;28;20423;-72
2021/06/18 04:28:29;;;;;;;0.70;0.70;;;22.10;99.90;;;22.86;100.00;22988.22;5068461;28;20467;-74
2021/06/18 04:30:57;;;;;;;0.80;0.70;;;22.20;99.90;;;22.98;100.00;18504.47;5062266;28;20506;-73
2021/06/18 04:33:27;;;;;;;0.70;0.60;;;22.30;99.90;;;23.01;100.00;11379.84;5051006;28;20489;-72
2021/06/18 04:35:56;;;;;;;0.80;0.70;;;22.40;99.90;;;23.11;100.00;5228.91;5051313;28;20897;-72
2021/06/18 04:38:23;;;;;;;1.13;1.03;;;22.40;99.90;;;23.34;100.00;-5560.81;5050924;28;20941;-72
2021/06/18 04:40:51;;;;;;;0.70;0.60;;;22.60;99.90;;;23.34;100.00;-14177.97;5052107;28;20423;-72
2021/06/18 04:43:20;;;;;;;0.80;0.70;;;22.70;99.90;;;23.37;100.00;-18478.69;5051657;28;20406;-72
2021/06/18 04:45:47;;;;;;;1.10;1.00;;;22.70;99.90;;;23.34;100.00;-20544.06;5037369;28;20403;-74
2021/06/18 04:48:15;;;;;;;0.70;0.60;;;22.80;99.90;;;23.41;100.00;-21314.66;5067593;28;20835;-74
2021/06/18 04:50:44;;;;;;;0.80;0.70;;;22.80;99.90;;;23.52;100.00;-21317.66;5055240;28;20773;-73
2021/06/18 04:53:12;;;;;;;0.70;0.70;;;22.90;99.90;;;23.62;100.00;-21320.38;5056471;28;20487;-72
2021/06/18 04:55:41;;;;;;;0.80;0.80;;;23.00;99.90;;;23.75;100.00;-21323.78;5056533;28;20986;-73
2021/06/18 04:58:08;;;;;;;0.80;0.70;;;23.10;99.90;;;23.96;100.00;-21329.34;5055222;28;20454;-75
2021/06/18 05:00:36;;;;;;;0.80;0.70;;;23.20;99.90;;;23.95;100.00;-21329.09;5055833;28;20785;-73
2021/06/18 05:03:04;;;;;;;0.80;0.73;;;23.30;99.90;;;23.86;100.00;-21326.63;5054176;28;20538;-74
2021/06/18 05:05:32;;;;;;;0.70;0.60;;;23.30;99.90;;;23.97;100.00;-21329.63;5059296;28;20411;-73
2021/06/18 05:08:03;;;;;;;0.80;0.63;;;23.40;99.90;;;23.97;100.00;-21329.63;5056200;28;20422;-73
2021/06/18 05:10:32;;;;;;;0.80;0.70;;;23.40;99.90;;;24.08;100.00;-21332.63;5056879;28;20391;-73
2021/06/18 05:13:00;;;;;;;0.73;0.63;;;23.40;99.90;;;24.08;100.00;-21332.63;5054777;28;20442;-74
2021/06/18 05:15:28;;;;;;;1.83;1.73;;;23.50;99.90;;;24.24;100.00;-21336.81;5056086;28;20987;-73
2021/06/18 05:17:55;;;;;;;0.80;0.77;;;23.60;99.90;;;24.38;100.00;-21340.50;5071543;28;20527;-73
2021/06/18 05:20:23;;;;;;;0.80;0.70;;;23.70;99.90;;;24.33;100.00;-21339.25;5055554;28;20431;-72
2021/06/18 05:22:51;;;;;;;0.70;0.60;;;23.70;99.90;;;24.45;100.00;-21342.41;5069767;28;20448;-72
2021/06/18 05:25:20;;;;;;;0.80;0.70;;;23.80;99.90;;;24.44;100.00;-21342.00;5071385;28;20831;-73
2021/06/18 05:27:47;;;;;;;0.70;0.60;;;23.90;99.90;;;24.50;100.00;-21343.75;5055947;28;20394;-73
2021/06/18 05:30:17;;;;;;;0.93;0.87;;;23.90;99.90;;;24.52;100.00;-21344.31;5056124;28;20433;-73
2021/06/18 05:32:46;;;;;;;0.77;0.67;;;24.00;99.90;;;24.64;100.00;-21347.28;5067423;28;20481;-72
2021/06/18 05:35:14;;;;;;;0.70;0.60;;;24.00;99.90;;;24.67;100.00;-21348.09;5057244;28;20423;-73
2021/06/18 05:37:42;;;;;;;0.70;0.60;;;24.10;99.90;;;24.71;100.00;-21349.31;5074754;28;20461;-75
2021/06/18 05:40:11;;;;;;;0.80;0.80;;;24.10;99.90;;;24.85;100.00;-21352.97;5074710;28;20451;-73
2021/06/18 05:42:41;;;;;;;0.70;0.60;;;24.20;99.90;;;24.82;100.00;-21352.31;5075058;28;20493;-72
2021/06/18 05:45:10;;;;;;;0.80;0.70;;;24.20;99.90;;;24.80;100.00;-21351.63;5074604;28;20897;-74
2021/06/18 05:47:38;;;;;;;0.80;0.70;;;24.30;99.90;;;24.92;100.00;-21354.88;5075719;28;20435;-73
2021/06/18 05:50:07;;;;;;;1.30;1.20;;;24.40;99.90;;;25.10;100.00;-21359.50;5075612;28;20409;-73
2021/06/18 05:52:36;;;;;;;0.80;0.60;;;24.40;99.90;;;25.09;100.00;-21359.22;5075453;28;20447;-72
2021/06/18 05:55:05;;;;;;;0.80;0.70;;;24.50;99.90;;;25.22;100.00;-21362.75;5074901;28;20773;-73
2021/06/18 05:57:33;;;;;;;0.70;0.60;;;24.60;99.90;;;25.47;100.00;-21369.38;5056734;28;20394;-72
2021/06/18 06:00:03;;;;;;;0.70;0.60;;;24.70;99.90;;;25.42;100.00;-21368.16;5074849;28;20433;-72
2021/06/18 06:02:33;;;;;;;0.80;0.63;;;24.80;99.90;;;25.46;100.00;-21369.25;5075281;28;20465;-72
2021/06/18 06:05:00;;;;;;;0.80;0.60;;;24.80;99.90;;;25.49;100.00;-21369.94;5075330;28;20480;-72
2021/06/18 06:07:28;;;;;;;0.80;0.63;;;24.90;99.90;;;25.51;100.00;-21370.59;5070304;28;20491;-72
2021/06/18 06:09:55;;;;;;;0.80;0.70;;;24.90;99.90;;;25.61;100.00;-21373.06;5066701;28;20453;-73
2021/06/18 06:12:24;;;;;;;0.70;0.60;;;25.00;99.90;;;25.67;100.00;-21374.81;5074925;28;20442;-72
2021/06/18 06:14:52;;;;;;;0.70;0.60;;;25.00;99.90;;;25.80;100.00;-21378.19;5074015;28;20455;-72
2021/06/18 06:17:21;;;;;;;1.10;1.00;;;25.10;99.90;;;25.82;100.00;-21378.75;5073284;28;20496;-73
2021/06/18 06:19:49;;;;;;;0.80;0.70;;;25.20;99.90;;;25.84;100.00;-21379.28;5072867;28;20417;-75
2021/06/18 06:22:18;;;;;;;0.70;0.60;;;25.20;99.90;;;25.84;100.00;-21379.28;5075045;28;20415;-72
2021/06/18 06:24:45;;;;;;;0.73;0.60;;;25.30;99.90;;;25.85;100.00;-21379.41;5074827;28;20447;-72
2021/06/18 06:27:13;;;;;;;0.70;0.60;;;25.30;99.90;;;26.12;100.00;-21386.72;5074793;28;20506;-73
2021/06/18 06:29:42;;;;;;;0.80;0.60;;;25.50;99.90;;;26.13;100.00;-21387.00;5075352;28;20406;-72
2021/06/18 06:32:09;;;;;;;1.10;1.00;;;25.60;99.90;;;26.36;100.00;-21393.09;5073836;28;20520;-73
2021/06/18 06:34:38;;;;;;;0.80;0.60;;;25.70;99.90;;;26.50;100.00;-21396.88;5074322;28;20430;-73
2021/06/18 06:37:06;;;;;;;0.70;0.60;;;25.90;99.90;;;26.76;100.00;-21403.53;5073838;28;20446;-74
2021/06/18 06:39:33;;;;;;;0.70;0.60;;;26.00;99.90;;;26.73;100.00;-21402.84;5073274;28;20470;-74
2021/06/18 06:42:01;;;;;;;0.70;0.60;;;26.10;99.90;;;26.66;100.00;-21401.09;5073133;28;20462;-72
2021/06/18 06:44:33;;;;;;;0.80;0.63;;;26.10;99.90;;;26.80;100.00;-21404.72;5074272;28;20911;-74
2021/06/18 06:47:00;;;;;;;0.80;0.70;;;26.20;99.90;;;27.05;100.00;-21411.22;5074155;28;20462;-73
2021/06/18 06:49:28;;;;;;;0.97;0.83;;;26.40;99.90;;;27.12;100.00;-21413.25;5074312;28;20406;-73
2021/06/18 06:51:58;;;;;;;0.70;0.60;;;26.50;99.90;;;27.29;100.00;-21417.59;5073205;28;20463;-74
2021/06/18 06:54:25;;;;;;;1.20;1.10;;;26.70;99.90;;;27.35;100.00;-21419.34;5073741;28;20453;-72
2021/06/18 06:56:54;;;;;;;1.20;1.07;;;26.80;99.90;;;27.39;100.00;-21420.41;5072843;28;20414;-71
2021/06/18 06:59:21;;;;;;;0.80;0.70;;;26.90;99.90;;;27.64;100.00;-21426.91;5074311;28;20412;-73
2021/06/18 07:01:49;;;;;;;0.80;0.60;;;27.10;99.90;;;28.21;100.00;-21442.03;5054117;28;20459;-71
2021/06/18 07:04:17;;;;;;;0.80;0.70;;;27.40;99.90;;;28.27;100.00;-21443.50;5052782;28;20425;-72
2021/06/18 07:06:49;;;;;;;0.80;0.70;;;27.80;99.90;;;28.65;100.00;-21453.63;5062983;28;20527;-75
2021/06/18 07:09:40;;;;;;;0.70;0.50;;;28.20;99.90;;;29.25;100.00;-21469.53;5073389;28;20434;-73
2021/06/18 07:12:10;;;;;;;0.80;0.70;;;28.80;99.90;;;30.19;100.00;-21494.19;5072779;28;20459;-72
2021/06/18 07:14:40;;;;;;;0.70;0.60;;;29.30;99.90;;;30.11;100.00;-21492.16;5074137;28;20434;-73
2021/06/18 07:17:08;;;;;;;0.80;0.60;;;29.50;99.90;;;29.45;100.00;-21474.78;5072503;28;20431;-75
2021/06/18 07:19:37;;;;;;;0.80;0.63;;;29.50;99.90;;;29.20;100.00;-21468.06;5073816;28;20408;-72
2021/06/18 07:22:05;;;;;;;0.70;0.50;;;29.40;99.90;;;29.38;100.00;-21472.91;5072963;28;20497;-72
2021/06/18 07:24:32;;;;;;;0.80;0.60;;;29.20;99.90;;;29.36;100.00;-21472.50;5073704;28;20806;-72
2021/06/18 07:27:01;;;;;;;1.00;0.70;;;29.20;99.90;;;29.27;100.00;-21470.09;5070610;28;20957;-73
2021/06/18 07:29:29;;;;;;;0.70;0.50;;;29.20;99.90;;;29.46;100.00;-21475.06;5072666;28;20908;-74
2021/06/18 07:31:57;;;;;;;0.70;0.50;;;29.30;99.90;;;29.48;100.00;-21475.47;5055384;28;20892;-74
2021/06/18 07:34:25;;;;;;;0.70;0.50;;;29.40;99.20;;;30.03;100.00;-21490.16;5073502;28;20447;-73
2021/06/18 07:36:53;;;;;;;0.70;0.57;;;29.40;96.70;;;30.05;100.00;-21490.56;5073668;28;20744;-73
2021/06/18 07:39:21;;;;;;;0.70;0.50;;;29.50;94.30;;;29.69;100.00;-21481.00;5072024;28;20566;-73
2021/06/18 07:41:49;;;;;;;0.70;0.50;;;29.40;96.80;;;29.79;100.00;-21483.69;5072164;28;20527;-73
2021/06/18 07:44:18;;;;;;;0.80;0.60;;;29.40;93.90;;;29.48;100.00;-21475.59;5073558;28;20456;-73
2021/06/18 07:46:48;;;;;;;0.70;0.50;;;29.30;94.70;;;29.26;100.00;-21469.69;5072155;28;20439;-74
2021/06/18 07:49:16;;;;;;;0.70;0.50;;;29.20;96.00;;;29.27;100.00;-21469.94;5071434;28;20473;-73
2021/06/18 07:51:43;;;;;;;0.97;0.87;;;29.10;96.40;;;29.35;100.00;-21472.25;5072452;28;20471;-73
2021/06/18 07:54:12;;;;;;;0.70;0.60;;;29.00;95.80;;;29.44;100.00;-21474.41;5071871;28;20451;-74
2021/06/18 07:56:44;;;;;;;0.77;0.63;;;29.00;95.80;;;29.03;100.00;-21463.63;5073356;28;20427;-73
2021/06/18 07:59:12;;;;;;;3.90;2.70;;;28.90;96.30;;;28.85;100.00;-21459.03;5073383;28;20411;-72
2021/06/18 08:01:41;;;;;;;0.70;0.57;;;28.70;97.10;;;28.39;100.00;-21446.75;5071121;28;20786;-73
2021/06/18 08:04:09;;;;;;;0.70;0.60;;;28.50;98.30;;;28.09;100.00;-21438.78;5060787;28;20949;-73
2021/06/18 08:06:36;;;;;;;0.70;0.60;;;28.30;97.20;;;27.78;100.00;-21430.69;5071870;28;20500;-73
2021/06/18 08:09:05;;;;;;;0.70;0.60;;;28.00;98.20;;;27.58;100.00;-21425.28;5072502;28;20813;-74
2021/06/18 08:11:33;;;;;;;0.77;0.60;;;27.80;99.90;;;27.63;100.00;-21426.63;5073450;28;20431;-73
2021/06/18 08:14:00;;;;;;;0.80;0.60;;;27.70;99.90;;;27.66;100.00;-21427.44;5072689;28;20810;-74
2021/06/18 08:16:28;;;;;;;0.80;0.60;;;27.50;99.90;;;27.42;100.00;-21421.22;5073284;28;20993;-74
2021/06/18 08:18:58;;;;;;;0.70;0.50;;;27.40;99.90;;;27.54;100.00;-21424.19;5076681;28;20403;-74
2021/06/18 08:21:26;;;;;;;0.70;0.60;;;27.30;99.90;;;27.78;100.00;-21430.56;5077078;28;20522;-74
2021/06/18 08:23:53;;;;;;;0.70;0.60;;;27.50;99.90;;;27.95;100.00;-21435.16;5076559;28;20450;-74
2021/06/18 08:26:22;;;;;;;0.73;0.60;;;27.60;99.90;;;28.04;100.00;-21437.44;5074735;28;20845;-74
2021/06/18 08:28:49;;;;;;;1.83;0.73;;;27.70;99.90;;;27.98;100.00;-21435.81;5077484;28;20504;-74
2021/06/18 08:31:17;;;;;;;0.70;0.60;;;27.70;99.90;;;27.94;100.00;-21435.00;5075681;28;20476;-74
2021/06/18 08:33:46;;;;;;;0.70;0.53;;;27.80;99.90;;;27.98;100.00;-21435.81;5075762;28;20474;-74
2021/06/18 08:36:15;;;;;;;0.70;0.60;;;27.80;99.90;;;28.11;100.00;-21439.34;5076784;28;20493;-74
2021/06/18 08:38:44;;;;;;;0.70;0.60;;;27.70;99.90;;;28.49;100.00;-21449.31;5066884;28;20491;-74
2021/06/18 08:41:11;;;;;;;0.70;0.60;;;27.80;99.90;;;28.89;100.00;-21460.09;5076867;28;20474;-74
2021/06/18 08:43:40;;;;;;;0.70;0.60;;;28.10;99.90;;;29.00;100.00;-21462.94;5076090;28;20419;-74
2021/06/18 08:46:08;;;;;;;0.70;0.60;;;28.40;99.90;;;29.40;100.00;-21473.44;5075364;28;20447;-74
2021/06/18 08:48:36;;;;;;;0.70;0.50;;;28.70;99.90;;;29.20;100.00;-21468.19;5075491;28;20423;-74
2021/06/18 08:51:04;;;;;;;0.70;0.50;;;28.90;99.90;;;29.52;100.00;-21476.69;5075406;28;20771;-74
2021/06/18 08:53:36;;;;;;;0.70;0.60;;;29.00;99.90;;;29.33;100.00;-21471.56;5076802;28;20829;-74
2021/06/18 08:56:07;;;;;;;0.70;0.50;;;29.10;99.90;;;29.18;100.00;-21467.53;5077036;28;20498;-74
2021/06/18 08:58:36;;;;;;;0.70;0.50;;;29.10;99.90;;;29.29;100.00;-21470.50;5076193;28;20563;-74
2021/06/18 09:01:09;;;;;;;0.70;0.57;;;29.10;99.90;;;29.23;100.00;-21469.00;5076405;28;20431;-74
2021/06/18 09:03:42;;;;;;;0.80;0.70;;;29.10;99.90;;;29.21;100.00;-21468.47;5075345;28;20407;-75
2021/06/18 09:06:30;;;;;;;1.10;1.00;;;29.20;99.90;;;29.25;100.00;-21469.53;5074511;28;20442;-74
2021/06/18 09:09:18;;;;;;;0.70;0.60;;;29.20;99.60;;;29.34;100.00;-21471.97;5076212;28;20439;-75
2021/06/18 09:11:50;;;;;;;0.70;0.50;;;29.40;96.80;;;29.67;100.00;-21480.59;5076332;28;20408;-74
2021/06/18 09:14:27;;;;;;;0.70;0.50;;;29.70;96.00;;;30.15;100.00;-21493.09;5076334;28;20450;-73
2021/06/18 09:17:16;;;;;;;0.70;0.50;;;30.00;96.90;;;30.74;100.00;-21508.72;5075186;28;20463;-74
2021/06/18 09:19:49;;;;;;;0.70;0.60;;;30.60;89.50;;;31.11;100.00;-21518.53;5074645;28;20428;-75
2021/06/18 09:22:20;;;;;;;0.70;0.50;;;31.10;89.70;;;31.34;100.00;-21524.44;5069504;28;20431;-74
2021/06/18 09:25:00;;;;;;;0.70;0.50;;;31.50;83.20;;;32.29;100.00;-21549.38;5066054;28;20454;-71
2021/06/18 09:27:31;;;;;;;0.90;0.70;;;32.20;84.30;;;33.41;100.00;-21578.84;5054813;28;20466;-72
2021/06/18 09:30:15;;;;;;;0.77;0.50;;;32.80;70.40;;;32.81;100.00;-21563.06;5055156;28;20412;-72
2021/06/18 09:32:57;;;;;;;1.63;1.53;;;33.20;67.00;;;32.56;100.00;-21556.63;5055769;28;20964;-71
2021/06/18 09:35:25;;;;;;;0.80;0.50;;;33.10;66.00;;;32.96;100.00;-21567.09;5054723;28;20924;-71
2021/06/18 09:37:54;;;;;;;0.80;0.50;;;33.30;59.10;;;32.96;100.00;-21567.09;5054963;28;20448;-72
2021/06/18 09:40:25;;;;;;;0.80;0.60;;;33.40;56.60;;;32.64;100.00;-21558.78;5054530;28;20456;-71
2021/06/18 09:42:56;;;;;;;0.80;0.50;;;33.20;55.40;;;32.84;100.00;-21563.88;5056540;28;20518;-72
2021/06/18 09:45:26;;;;;;;1.20;0.83;;;33.10;54.70;;;32.97;100.00;-21567.34;5074232;28;20783;-72
2021/06/18 09:48:09;;;;;;;0.80;0.50;;;33.40;50.80;;;32.82;100.00;-21563.31;5091446;28;20460;-71
2021/06/18 09:50:40;;;;;;;0.80;0.50;;;33.50;49.60;;;32.63;100.00;-21558.38;5075646;28;20418;-71
2021/06/18 09:53:19;;;;;;;0.80;0.50;;;33.30;52.60;;;32.54;100.00;-21556.09;5073897;28;20479;-71
2021/06/18 09:56:01;;;;;;;0.80;0.50;;;33.20;55.40;;;33.58;100.00;-21583.28;5075369;28;20447;-71
2021/06/18 09:58:35;;;;;;;0.80;0.57;;;33.90;52.20;;;35.45;100.00;-21632.28;5064270;28;20439;-72
2021/06/18 10:01:17;;;;;;;0.80;0.50;;;34.90;46.70;;;34.63;100.00;-21610.69;5073612;28;20942;-70
2021/06/18 10:04:03;;;;;;;0.80;0.50;;;35.70;43.70;;;34.87;100.00;-21617.09;5073951;28;20514;-69
2021/06/18 10:06:36;;;;;;;0.90;0.70;;;36.00;36.80;;;34.11;100.00;-21597.19;5074974;28;20830;-70
2021/06/18 10:09:06;;;;;;;0.80;0.50;;;35.80;36.60;;;34.30;100.00;-21602.25;5073841;28;20454;-70
2021/06/18 10:11:36;;;;;;;0.80;0.50;;;35.40;38.10;;;36.17;100.00;-21650.97;5075269;28;20861;-70
2021/06/18 10:14:05;;;;;;;0.80;0.50;;;35.80;38.30;;;35.93;100.00;-21644.81;5073128;28;20881;-70
2021/06/18 10:16:33;;;;;;;0.90;0.50;;;36.70;31.70;;;36.61;100.00;-21662.53;5073303;28;20434;-69
2021/06/18 10:19:04;;;;;;;0.90;0.50;;;37.10;30.70;;;36.88;100.00;-21669.44;5073858;28;20415;-71
2021/06/18 10:21:35;;;;;;;1.00;0.60;;;37.30;26.90;;;36.61;100.00;-21662.53;5074736;28;20427;-70